createdAt,value
2019-01-23T00:01:26.452Z,20.13
2019-01-23T00:03:56.781Z,23.67
2019-01-23T00:06:27.171Z,24.93
2019-01-23T00:08:57.538Z,21.90
2019-01-23T00:11:27.921Z,22.07
2019-01-23T00:17:06.541Z,24.10
2019-01-23T00:19:36.905Z,28.40
2019-01-23T00:22:07.926Z,25.20
2019-01-23T00:24:38.509Z,26.83
2019-01-23T00:27:08.937Z,28.10
2019-01-23T00:29:58.396Z,28.83
2019-01-23T00:32:28.874Z,29.33
2019-01-23T00:34:59.257Z,24.23
2019-01-23T00:37:29.535Z,30.53
2019-01-23T00:40:20.411Z,26.93
2019-01-23T00:42:50.737Z,29.63
2019-01-23T00:45:21.151Z,29.60
2019-01-23T00:47:53.056Z,32.70
2019-01-23T00:50:23.574Z,31.13
2019-01-23T00:52:53.850Z,33.20
2019-01-23T00:58:07.736Z,30.03
2019-01-23T01:00:38.084Z,39.00
2019-01-23T01:03:08.633Z,32.23
2019-01-23T01:05:39.226Z,33.07
2019-01-23T01:08:09.687Z,34.43
2019-01-23T01:10:39.973Z,34.57
2019-01-23T01:13:10.243Z,35.87
2019-01-23T01:15:40.665Z,34.87
2019-01-23T01:18:10.986Z,36.67
2019-01-23T01:20:41.260Z,38.63
2019-01-23T01:23:11.744Z,39.40
2019-01-23T01:25:42.163Z,38.80
2019-01-23T01:28:12.485Z,39.60
2019-01-23T01:30:42.764Z,38.60
2019-01-23T01:33:13.096Z,40.17
2019-01-23T01:35:43.381Z,41.00
2019-01-23T01:47:07.340Z,39.70
2019-01-23T01:49:37.577Z,41.23
2019-01-23T01:52:07.850Z,40.37
2019-01-23T01:54:38.147Z,38.83
2019-01-23T02:03:30.531Z,45.10
2019-01-23T02:06:00.911Z,43.60
2019-01-23T02:08:31.225Z,45.43
2019-01-23T02:11:01.492Z,35.77
2019-01-23T02:13:31.805Z,41.37
2019-01-23T02:16:02.026Z,43.30
2019-01-23T02:18:32.359Z,49.47
2019-01-23T02:21:02.632Z,46.87
2019-01-23T02:23:32.914Z,43.80
2019-01-23T02:26:03.189Z,47.63
2019-01-23T02:28:33.576Z,44.27
2019-01-23T02:33:59.443Z,50.50
2019-01-23T02:36:29.788Z,46.73
2019-01-23T02:39:00.049Z,43.87
2019-01-23T02:41:30.501Z,46.00
2019-01-23T02:44:02.370Z,45.87
2019-01-23T02:46:32.728Z,49.93
2019-01-23T02:49:03.131Z,46.37
2019-01-23T02:51:33.551Z,44.20
2019-01-23T02:54:03.850Z,43.07
2019-01-23T02:56:34.216Z,49.67
2019-01-23T03:01:49.884Z,44.20
2019-01-23T03:07:11.744Z,43.40
2019-01-23T03:09:42.077Z,46.47
2019-01-23T03:12:12.485Z,42.83
2019-01-23T03:14:42.919Z,41.20
2019-01-23T03:17:13.280Z,37.33
2019-01-23T03:19:44.123Z,43.83
2019-01-23T03:22:33.848Z,44.30
2019-01-23T03:25:04.318Z,44.90
2019-01-23T03:27:34.594Z,45.13
2019-01-23T03:33:07.423Z,46.00
2019-01-23T03:35:37.856Z,42.00
2019-01-23T03:38:08.103Z,41.73
2019-01-23T03:43:34.700Z,37.67
2019-01-23T03:46:05.115Z,39.70
2019-01-23T03:48:35.456Z,39.10
2019-01-23T03:51:24.924Z,34.00
2019-01-23T03:53:55.202Z,44.90
2019-01-23T03:56:25.480Z,40.53
2019-01-23T03:58:55.867Z,36.90
2019-01-23T04:01:26.144Z,41.17
2019-01-23T04:03:56.477Z,40.10
2019-01-23T04:06:38.663Z,47.37
2019-01-23T04:09:09.594Z,45.57
2019-01-23T04:11:39.928Z,41.97
2019-01-23T04:14:10.203Z,46.77
2019-01-23T04:16:40.489Z,41.47
2019-01-23T04:19:10.743Z,48.40
2019-01-23T04:21:41.046Z,40.20
2019-01-23T04:24:11.344Z,38.63
2019-01-23T04:26:41.612Z,41.87
2019-01-23T04:29:13.749Z,43.43
2019-01-23T04:31:44.131Z,45.00
2019-01-23T04:34:14.371Z,38.43
2019-01-23T04:36:44.610Z,42.53
2019-01-23T04:39:39.698Z,48.00
2019-01-23T04:42:10.046Z,39.57
2019-01-23T04:44:40.353Z,41.73
2019-01-23T04:49:52.689Z,44.27
2019-01-23T04:52:42.189Z,56.33
2019-01-23T05:04:12.330Z,30.13
2019-01-23T05:06:42.773Z,40.30
2019-01-23T05:09:13.065Z,42.00
2019-01-23T05:11:44.403Z,40.63
2019-01-23T05:14:14.760Z,37.53
2019-01-23T05:16:45.044Z,44.67
2019-01-23T05:19:15.417Z,45.37
2019-01-23T05:24:51.922Z,43.03
2019-01-23T05:27:22.244Z,36.07
2019-01-23T05:29:54.949Z,45.10
2019-01-23T05:35:09.471Z,37.23
2019-01-23T05:37:39.798Z,39.97
2019-01-23T05:42:57.495Z,43.20
2019-01-23T05:45:27.777Z,35.67
2019-01-23T05:47:58.192Z,42.80
2019-01-23T05:50:28.601Z,37.00
2019-01-23T05:56:25.235Z,42.93
2019-01-23T05:58:56.059Z,38.50
2019-01-23T06:01:26.525Z,41.43
2019-01-23T06:12:56.330Z,34.33
2019-01-23T06:15:28.719Z,40.13
2019-01-23T06:17:58.990Z,35.30
2019-01-23T06:20:29.535Z,41.30
2019-01-23T06:23:13.709Z,43.67
2019-01-23T06:25:44.109Z,41.83
2019-01-23T06:28:15.189Z,37.07
2019-01-23T06:30:53.164Z,37.47
2019-01-23T06:33:25.476Z,39.90
2019-01-23T06:35:55.839Z,34.07
2019-01-23T06:38:26.126Z,36.90
2019-01-23T06:40:56.382Z,40.33
2019-01-23T06:43:26.698Z,39.53
2019-01-23T06:45:56.903Z,39.17
2019-01-23T06:48:27.256Z,42.53
2019-01-23T06:50:57.527Z,38.23
2019-01-23T06:53:27.880Z,42.80
2019-01-23T06:55:58.111Z,38.43
2019-01-23T06:58:28.356Z,42.87
2019-01-23T07:01:00.005Z,41.73
2019-01-23T07:06:15.244Z,39.17
2019-01-23T07:11:38.431Z,38.87
2019-01-23T07:14:08.689Z,37.37
2019-01-23T07:16:38.979Z,38.00
2019-01-23T07:19:28.594Z,40.90
2019-01-23T07:22:05.188Z,36.90
2019-01-23T07:24:35.435Z,37.73
2019-01-23T07:27:05.791Z,39.00
2019-01-23T07:29:38.851Z,35.47
2019-01-23T07:32:09.128Z,35.40
2019-01-23T07:34:39.339Z,36.57
2019-01-23T07:42:35.666Z,35.03
2019-01-23T07:45:07.656Z,41.63
2019-01-23T07:47:38.418Z,31.90
2019-01-23T07:50:09.838Z,39.97
2019-01-23T07:52:59.524Z,37.60
2019-01-23T07:55:29.738Z,39.10
2019-01-23T08:00:49.158Z,40.33
2019-01-23T08:03:19.493Z,38.93
2019-01-23T08:06:10.735Z,38.37
2019-01-23T08:08:41.012Z,34.80
2019-01-23T08:11:11.590Z,35.10
2019-01-23T08:16:46.039Z,33.90
2019-01-23T08:19:16.277Z,36.20
2019-01-23T08:21:46.619Z,35.23
2019-01-23T08:24:17.053Z,36.97
2019-01-23T08:26:47.390Z,32.47
2019-01-23T08:29:36.987Z,36.47
2019-01-23T08:32:08.502Z,35.07
2019-01-23T08:34:39.381Z,34.77
2019-01-23T08:39:48.393Z,34.77
2019-01-23T08:42:18.613Z,44.53
2019-01-23T08:44:48.928Z,38.67
2019-01-23T08:47:19.215Z,36.60
2019-01-23T08:49:50.422Z,30.63
2019-01-23T08:55:04.451Z,38.70
2019-01-23T08:57:47.855Z,32.77
2019-01-23T09:00:18.249Z,33.07
2019-01-23T09:02:48.725Z,31.43
2019-01-23T09:11:30.780Z,34.73
2019-01-23T09:14:01.104Z,36.30
2019-01-23T09:16:46.108Z,35.70
2019-01-23T09:19:16.573Z,31.53
2019-01-23T09:21:46.912Z,30.83
2019-01-23T09:24:17.911Z,31.57
2019-01-23T09:26:50.298Z,33.73
2019-01-23T09:29:20.724Z,33.10
2019-01-23T09:32:17.936Z,31.17
2019-01-23T09:35:27.220Z,31.13
2019-01-23T09:38:35.639Z,29.60
2019-01-23T09:41:15.236Z,31.93
2019-01-23T09:47:21.643Z,29.00
2019-01-23T09:53:34.422Z,31.77
2019-01-23T09:56:05.173Z,31.90
2019-01-23T09:58:35.463Z,30.10
2019-01-23T10:04:11.645Z,29.20
2019-01-23T10:06:41.997Z,26.60
2019-01-23T10:12:28.457Z,31.80
2019-01-23T10:15:03.176Z,31.53
2019-01-23T10:17:33.516Z,31.47
2019-01-23T10:20:04.312Z,26.57
2019-01-23T10:22:36.549Z,28.10
2019-01-23T10:25:07.094Z,28.63
2019-01-23T10:30:28.723Z,26.43
2019-01-23T10:35:41.406Z,34.10
2019-01-23T10:38:11.684Z,33.57
2019-01-23T10:40:42.042Z,34.57
2019-01-23T10:46:22.820Z,36.37
2019-01-23T10:48:54.779Z,36.40
2019-01-23T10:51:25.087Z,35.83
2019-01-23T10:54:14.956Z,39.10
2019-01-23T10:56:46.323Z,36.40
2019-01-23T11:02:19.772Z,37.70
2019-01-23T11:04:50.630Z,32.43
2019-01-23T11:07:21.113Z,38.80
2019-01-23T11:12:42.056Z,62.03
2019-01-23T11:15:31.651Z,55.93
2019-01-23T11:18:20.935Z,55.00
2019-01-23T11:20:51.175Z,57.97
2019-01-23T11:23:21.647Z,57.70
2019-01-23T11:25:51.947Z,55.90
2019-01-23T11:28:22.199Z,58.03
2019-01-23T11:33:36.941Z,63.00
2019-01-23T11:36:07.508Z,63.27
2019-01-23T11:38:40.414Z,67.20
2019-01-23T11:41:24.134Z,64.77
2019-01-23T11:43:55.107Z,66.70
2019-01-23T11:46:25.481Z,66.00
2019-01-23T11:48:58.421Z,54.57
2019-01-23T11:51:28.722Z,64.00
2019-01-23T11:56:41.281Z,68.53
2019-01-23T11:59:15.167Z,64.07
2019-01-23T12:01:47.441Z,64.00
2019-01-23T12:10:13.099Z,64.47
2019-01-23T12:12:59.852Z,64.63
2019-01-23T12:21:28.321Z,61.77
2019-01-23T12:27:03.327Z,65.40
2019-01-23T12:29:35.393Z,64.67
2019-01-23T12:32:17.898Z,65.23
2019-01-23T12:34:53.522Z,65.70
2019-01-23T12:40:31.392Z,62.73
2019-01-23T12:49:42.285Z,62.47
2019-01-23T12:52:14.220Z,63.37
2019-01-23T12:54:44.573Z,63.37
2019-01-23T12:57:15.440Z,67.07
2019-01-23T12:59:51.911Z,62.13
2019-01-23T13:02:22.261Z,63.50
2019-01-23T13:08:08.971Z,61.60
2019-01-23T13:14:09.072Z,67.73
2019-01-23T13:16:41.755Z,79.33
2019-01-23T13:19:12.133Z,77.03
2019-01-23T13:21:43.017Z,72.73
2019-01-23T13:27:16.652Z,76.10
2019-01-23T13:32:40.974Z,70.00
2019-01-23T13:35:13.432Z,68.40
2019-01-23T13:37:44.448Z,71.07
2019-01-23T13:43:23.776Z,73.60
2019-01-23T13:45:54.010Z,76.90
2019-01-23T13:51:27.244Z,76.53
2019-01-23T13:53:57.643Z,74.53
2019-01-23T13:56:27.952Z,69.37
2019-01-23T13:58:58.368Z,72.97
2019-01-23T14:01:28.715Z,75.70
2019-01-23T14:07:12.408Z,69.13
2019-01-23T14:12:11.640Z,72.27
2019-01-23T14:15:01.117Z,65.83
2019-01-23T14:17:31.824Z,73.07
2019-01-23T14:22:52.226Z,64.70
2019-01-23T14:25:22.424Z,66.17
2019-01-23T14:27:54.700Z,66.93
2019-01-23T14:30:28.325Z,62.83
2019-01-23T14:35:49.031Z,63.27
2019-01-23T14:38:19.433Z,58.77
2019-01-23T14:41:02.355Z,68.13
2019-01-23T14:43:32.679Z,68.63
2019-01-23T14:46:03.959Z,62.03
2019-01-23T14:48:34.238Z,66.50
2019-01-23T14:54:06.682Z,60.80
2019-01-23T14:56:37.038Z,65.57
2019-01-23T14:59:11.630Z,61.27
2019-01-23T15:01:41.878Z,65.43
2019-01-23T15:04:13.921Z,62.13
2019-01-23T15:06:44.253Z,56.47
2019-01-23T15:09:19.867Z,64.07
2019-01-23T15:11:50.090Z,63.27
2019-01-23T15:14:20.481Z,60.33
2019-01-23T15:16:53.656Z,60.40
2019-01-23T15:20:10.473Z,63.83
2019-01-23T15:22:40.719Z,66.00
2019-01-23T15:25:11.098Z,59.10
2019-01-23T15:27:41.363Z,62.30
2019-01-23T15:30:13.367Z,61.27
2019-01-23T15:35:26.176Z,56.67
2019-01-23T15:37:56.480Z,63.07
2019-01-23T15:40:29.098Z,62.67
2019-01-23T15:42:59.469Z,56.13
2019-01-23T15:45:29.763Z,59.20
2019-01-23T15:48:00.063Z,50.73
2019-01-23T15:56:17.358Z,58.27
2019-01-23T16:01:42.773Z,56.27
2019-01-23T16:04:13.983Z,59.37
2019-01-23T16:09:45.783Z,58.13
2019-01-23T16:12:16.050Z,57.70
2019-01-23T16:14:46.809Z,52.03
2019-01-23T16:17:17.296Z,51.40
2019-01-23T16:19:47.638Z,47.53
2019-01-23T16:22:37.053Z,51.13
2019-01-23T16:25:08.552Z,48.97
2019-01-23T16:27:38.842Z,46.93
2019-01-23T16:33:22.611Z,49.53
2019-01-23T16:35:52.853Z,46.23
2019-01-23T16:38:23.177Z,45.67
2019-01-23T16:40:53.421Z,45.97
2019-01-23T16:44:08.753Z,40.97
2019-01-23T16:46:39.123Z,36.83
2019-01-23T16:49:30.171Z,40.30
2019-01-23T16:52:01.822Z,39.87
2019-01-23T16:54:49.803Z,40.67
2019-01-23T16:57:22.483Z,37.47
2019-01-23T17:02:55.244Z,35.37
2019-01-23T17:05:28.130Z,38.03
2019-01-23T17:08:00.306Z,40.07
2019-01-23T17:10:31.806Z,37.47
2019-01-23T17:16:16.681Z,34.63
2019-01-23T17:18:49.542Z,33.47
2019-01-23T17:21:19.787Z,39.47
2019-01-23T17:23:50.039Z,37.43
2019-01-23T17:26:20.389Z,37.00
2019-01-23T17:29:06.830Z,35.80
2019-01-23T17:31:37.259Z,35.13
2019-01-23T17:34:07.875Z,36.03
2019-01-23T17:37:03.167Z,36.80
2019-01-23T17:39:33.433Z,36.83
2019-01-23T17:42:23.188Z,36.97
2019-01-23T17:44:53.434Z,36.23
2019-01-23T17:50:15.769Z,35.80
2019-01-23T17:52:46.052Z,34.47
2019-01-23T17:55:28.335Z,37.10
2019-01-23T17:57:59.104Z,35.27
2019-01-23T18:08:39.256Z,35.57
2019-01-23T18:11:09.483Z,38.10
2019-01-23T18:13:39.756Z,26.27
2019-01-23T18:16:11.832Z,35.97
2019-01-23T18:18:42.149Z,32.30
2019-01-23T18:21:12.747Z,33.70
2019-01-23T18:23:43.021Z,31.90
2019-01-23T18:26:13.299Z,35.80
2019-01-23T18:28:43.736Z,34.90
2019-01-23T18:31:44.853Z,35.70
2019-01-23T18:34:49.415Z,33.07
2019-01-23T18:37:42.736Z,36.20
2019-01-23T18:40:51.400Z,31.63
2019-01-23T18:44:00.074Z,34.80
2019-01-23T18:47:09.722Z,32.90
2019-01-23T18:50:18.026Z,25.60
2019-01-23T18:53:01.761Z,30.90
2019-01-23T18:55:32.721Z,29.43
2019-01-23T19:01:06.671Z,30.40
2019-01-23T19:03:37.372Z,30.63
2019-01-23T19:06:07.744Z,36.53
2019-01-23T19:08:38.047Z,36.30
2019-01-23T19:11:11.830Z,32.70
2019-01-23T19:13:43.131Z,32.67
2019-01-23T19:16:33.975Z,31.73
2019-01-23T19:19:05.026Z,31.83
2019-01-23T19:21:55.213Z,28.77
2019-01-23T19:24:25.672Z,32.57
2019-01-23T19:26:58.667Z,33.13
2019-01-23T19:29:53.707Z,33.87
2019-01-23T19:32:24.098Z,31.70
2019-01-23T19:34:54.574Z,31.00
2019-01-23T19:37:25.059Z,32.23
2019-01-23T19:39:55.349Z,31.53
2019-01-23T19:45:32.065Z,30.30
2019-01-23T19:50:57.821Z,31.07
2019-01-23T19:53:28.136Z,34.10
2019-01-23T19:56:00.813Z,33.93
2019-01-23T19:58:50.406Z,31.77
2019-01-23T20:01:20.915Z,30.87
2019-01-23T20:03:51.344Z,34.50
2019-01-23T20:06:21.640Z,32.43
2019-01-23T20:08:51.957Z,33.00
2019-01-23T20:11:22.653Z,29.77
2019-01-23T20:14:24.761Z,34.07
2019-01-23T20:16:57.081Z,32.00
2019-01-23T20:19:27.365Z,30.57
2019-01-23T20:27:32.072Z,32.00
2019-01-23T20:30:02.916Z,30.63
2019-01-23T20:32:33.334Z,31.13
2019-01-23T20:35:03.713Z,34.13
2019-01-23T20:37:34.148Z,33.77
2019-01-23T20:46:01.251Z,30.77
2019-01-23T20:48:31.731Z,29.97
2019-01-23T20:51:02.065Z,29.30
2019-01-23T20:53:32.385Z,29.60
2019-01-23T20:56:02.645Z,30.77
2019-01-23T20:58:32.959Z,30.20
2019-01-23T21:01:03.379Z,33.10
2019-01-23T21:03:35.159Z,30.00
2019-01-23T21:08:51.623Z,31.03
2019-01-23T21:11:21.851Z,31.77
2019-01-23T21:13:53.837Z,32.33
2019-01-23T21:16:42.306Z,30.53
2019-01-23T21:19:13.035Z,31.00
2019-01-23T21:24:44.731Z,31.60
2019-01-23T21:29:57.329Z,31.03
2019-01-23T21:32:27.594Z,30.70
2019-01-23T21:34:57.867Z,29.23
2019-01-23T21:37:28.205Z,34.40
2019-01-23T21:39:58.457Z,30.93
2019-01-23T21:42:28.767Z,33.60
2019-01-23T21:44:59.148Z,29.37
2019-01-23T21:47:31.080Z,32.10
2019-01-23T21:53:01.002Z,32.93
2019-01-23T21:55:31.318Z,30.90
2019-01-23T21:58:01.582Z,30.90
2019-01-23T22:03:19.576Z,33.43
2019-01-23T22:08:44.658Z,31.80
2019-01-23T22:11:14.974Z,31.27
2019-01-23T22:13:45.275Z,29.77
2019-01-23T22:16:16.265Z,32.20
2019-01-23T22:18:58.826Z,31.67
2019-01-23T22:21:29.270Z,31.93
2019-01-23T22:23:59.558Z,31.83
2019-01-23T22:26:43.970Z,30.67
2019-01-23T22:31:56.620Z,32.70
2019-01-23T22:34:27.377Z,32.73
2019-01-23T22:37:03.491Z,33.43
2019-01-23T22:39:33.822Z,33.77
2019-01-23T22:42:04.250Z,33.23
2019-01-23T22:44:34.491Z,31.80
2019-01-23T22:47:05.135Z,33.60
2019-01-23T22:49:35.407Z,35.20
2019-01-23T22:52:05.702Z,32.37
2019-01-23T22:54:35.930Z,33.73
2019-01-23T23:06:08.582Z,35.67
2019-01-23T23:08:38.837Z,35.07
2019-01-23T23:11:09.109Z,34.10
2019-01-23T23:13:39.484Z,33.93
2019-01-23T23:28:04.104Z,34.57
2019-01-23T23:30:35.476Z,36.17
2019-01-23T23:33:08.109Z,35.67
2019-01-23T23:35:38.562Z,39.07
2019-01-23T23:41:09.204Z,33.40
2019-01-23T23:47:03.239Z,38.13
2019-01-23T23:49:33.604Z,35.33
2019-01-23T23:52:04.297Z,33.87
2019-01-23T23:54:34.742Z,34.43
2019-01-23T23:57:05.144Z,34.73
2019-01-23T23:59:36.071Z,33.00
